sensor_id;sensor_type;location;lat;lon;timestamp;temperature;humidity
72126;SHT31;59999;51.676;22.650;2024-03-02T00:02:25;6.24;84.41
72126;SHT31;59999;51.676;22.650;2024-03-02T00:04:51;6.19;84.57
72126;SHT31;59999;51.676;22.650;2024-03-02T00:07:17;6.19;84.59
72126;SHT31;59999;51.676;22.650;2024-03-02T00:09:43;6.22;84.69
72126;SHT31;59999;51.676;22.650;2024-03-02T00:12:11;6.19;84.74
72126;SHT31;59999;51.676;22.650;2024-03-02T00:14:41;6.19;84.79
72126;SHT31;59999;51.676;22.650;2024-03-02T00:17:17;6.22;84.75
72126;SHT31;59999;51.676;22.650;2024-03-02T00:19:44;6.19;84.69
72126;SHT31;59999;51.676;22.650;2024-03-02T00:22:10;6.22;84.74
72126;SHT31;59999;51.676;22.650;2024-03-02T00:24:36;6.18;84.71
72126;SHT31;59999;51.676;22.650;2024-03-02T00:27:03;6.17;84.90
72126;SHT31;59999;51.676;22.650;2024-03-02T00:29:29;6.18;84.91
72126;SHT31;59999;51.676;22.650;2024-03-02T00:31:55;6.18;85.03
72126;SHT31;59999;51.676;22.650;2024-03-02T00:34:21;6.19;84.98
72126;SHT31;59999;51.676;22.650;2024-03-02T00:36:47;6.18;84.65
72126;SHT31;59999;51.676;22.650;2024-03-02T00:39:16;6.18;84.78
72126;SHT31;59999;51.676;22.650;2024-03-02T00:41:43;6.18;84.94
72126;SHT31;59999;51.676;22.650;2024-03-02T00:44:11;6.15;85.19
72126;SHT31;59999;51.676;22.650;2024-03-02T00:46:39;6.15;85.22
72126;SHT31;59999;51.676;22.650;2024-03-02T00:49:22;6.17;85.33
72126;SHT31;59999;51.676;22.650;2024-03-02T00:51:50;6.15;85.23
72126;SHT31;59999;51.676;22.650;2024-03-02T00:54:20;6.14;85.29
72126;SHT31;59999;51.676;22.650;2024-03-02T00:56:46;6.12;85.34
72126;SHT31;59999;51.676;22.650;2024-03-02T00:59:12;6.12;85.40
72126;SHT31;59999;51.676;22.650;2024-03-02T01:01:38;6.11;85.52
72126;SHT31;59999;51.676;22.650;2024-03-02T01:04:04;6.09;85.53
72126;SHT31;59999;51.676;22.650;2024-03-02T01:06:30;6.09;85.50
72126;SHT31;59999;51.676;22.650;2024-03-02T01:08:56;6.12;85.54
72126;SHT31;59999;51.676;22.650;2024-03-02T01:11:22;6.09;85.45
72126;SHT31;59999;51.676;22.650;2024-03-02T01:13:48;6.12;85.25
72126;SHT31;59999;51.676;22.650;2024-03-02T01:16:14;6.14;85.28
72126;SHT31;59999;51.676;22.650;2024-03-02T01:18:41;6.11;85.35
72126;SHT31;59999;51.676;22.650;2024-03-02T01:21:07;6.09;85.38
72126;SHT31;59999;51.676;22.650;2024-03-02T01:23:33;6.11;85.36
72126;SHT31;59999;51.676;22.650;2024-03-02T01:25:59;6.11;85.50
72126;SHT31;59999;51.676;22.650;2024-03-02T01:28:25;6.07;85.59
72126;SHT31;59999;51.676;22.650;2024-03-02T01:30:51;6.09;85.66
72126;SHT31;59999;51.676;22.650;2024-03-02T01:33:17;6.07;85.53
72126;SHT31;59999;51.676;22.650;2024-03-02T01:35:43;6.08;85.68
72126;SHT31;59999;51.676;22.650;2024-03-02T01:38:09;6.05;85.72
72126;SHT31;59999;51.676;22.650;2024-03-02T01:40:36;6.08;85.71
72126;SHT31;59999;51.676;22.650;2024-03-02T01:43:04;6.11;85.69
72126;SHT31;59999;51.676;22.650;2024-03-02T01:45:30;6.08;85.67
72126;SHT31;59999;51.676;22.650;2024-03-02T01:47:56;6.15;85.11
72126;SHT31;59999;51.676;22.650;2024-03-02T01:50:30;6.14;85.28
72126;SHT31;59999;51.676;22.650;2024-03-02T01:52:58;6.12;85.45
72126;SHT31;59999;51.676;22.650;2024-03-02T01:55:23;6.08;85.47
72126;SHT31;59999;51.676;22.650;2024-03-02T01:57:50;6.07;85.57
72126;SHT31;59999;51.676;22.650;2024-03-02T02:00:20;6.07;85.67
72126;SHT31;59999;51.676;22.650;2024-03-02T02:02:47;6.07;85.62
72126;SHT31;59999;51.676;22.650;2024-03-02T02:05:14;6.08;85.67
72126;SHT31;59999;51.676;22.650;2024-03-02T02:07:41;6.12;85.13
72126;SHT31;59999;51.676;22.650;2024-03-02T02:10:07;6.09;85.31
72126;SHT31;59999;51.676;22.650;2024-03-02T02:12:33;6.09;85.45
72126;SHT31;59999;51.676;22.650;2024-03-02T02:14:59;6.08;85.56
72126;SHT31;59999;51.676;22.650;2024-03-02T02:17:25;6.07;85.76
72126;SHT31;59999;51.676;22.650;2024-03-02T02:19:51;6.07;85.83
72126;SHT31;59999;51.676;22.650;2024-03-02T02:22:16;6.08;85.81
72126;SHT31;59999;51.676;22.650;2024-03-02T02:24:42;6.09;85.65
72126;SHT31;59999;51.676;22.650;2024-03-02T02:27:09;6.11;85.71
72126;SHT31;59999;51.676;22.650;2024-03-02T02:29:36;6.09;85.71
72126;SHT31;59999;51.676;22.650;2024-03-02T02:32:02;6.12;85.73
72126;SHT31;59999;51.676;22.650;2024-03-02T02:34:28;6.14;85.62
72126;SHT31;59999;51.676;22.650;2024-03-02T02:36:55;6.12;85.65
72126;SHT31;59999;51.676;22.650;2024-03-02T02:39:21;6.11;85.65
72126;SHT31;59999;51.676;22.650;2024-03-02T02:41:50;6.11;85.63
72126;SHT31;59999;51.676;22.650;2024-03-02T02:44:16;6.08;85.77
72126;SHT31;59999;51.676;22.650;2024-03-02T02:46:42;6.08;85.76
72126;SHT31;59999;51.676;22.650;2024-03-02T02:49:08;6.05;85.89
72126;SHT31;59999;51.676;22.650;2024-03-02T02:51:34;6.05;85.84
72126;SHT31;59999;51.676;22.650;2024-03-02T02:53:59;6.07;86.01
72126;SHT31;59999;51.676;22.650;2024-03-02T02:56:25;6.04;86.12
72126;SHT31;59999;51.676;22.650;2024-03-02T02:58:51;6.05;86.05
72126;SHT31;59999;51.676;22.650;2024-03-02T03:01:17;6.05;86.09
72126;SHT31;59999;51.676;22.650;2024-03-02T03:03:44;6.05;85.60
72126;SHT31;59999;51.676;22.650;2024-03-02T03:06:10;6.07;85.67
72126;SHT31;59999;51.676;22.650;2024-03-02T03:08:36;6.09;85.74
72126;SHT31;59999;51.676;22.650;2024-03-02T03:11:03;6.04;85.79
72126;SHT31;59999;51.676;22.650;2024-03-02T03:13:29;6.04;86.04
72126;SHT31;59999;51.676;22.650;2024-03-02T03:15:55;5.99;86.20
72126;SHT31;59999;51.676;22.650;2024-03-02T03:18:20;6.01;86.29
72126;SHT31;59999;51.676;22.650;2024-03-02T03:20:46;6.01;86.38
72126;SHT31;59999;51.676;22.650;2024-03-02T03:23:12;6.04;86.42
72126;SHT31;59999;51.676;22.650;2024-03-02T03:25:41;6.01;86.35
72126;SHT31;59999;51.676;22.650;2024-03-02T03:28:07;6.02;86.37
72126;SHT31;59999;51.676;22.650;2024-03-02T03:30:38;6.02;86.42
72126;SHT31;59999;51.676;22.650;2024-03-02T03:33:05;6.04;86.26
72126;SHT31;59999;51.676;22.650;2024-03-02T03:35:34;6.04;86.33
72126;SHT31;59999;51.676;22.650;2024-03-02T03:38:00;6.04;86.37
72126;SHT31;59999;51.676;22.650;2024-03-02T03:40:26;6.07;86.31
72126;SHT31;59999;51.676;22.650;2024-03-02T03:42:52;6.04;86.36
72126;SHT31;59999;51.676;22.650;2024-03-02T03:45:19;6.05;86.41
72126;SHT31;59999;51.676;22.650;2024-03-02T03:47:45;6.02;86.50
72126;SHT31;59999;51.676;22.650;2024-03-02T03:50:11;6.04;86.45
72126;SHT31;59999;51.676;22.650;2024-03-02T03:52:37;6.08;86.04
72126;SHT31;59999;51.676;22.650;2024-03-02T03:55:04;6.08;86.32
72126;SHT31;59999;51.676;22.650;2024-03-02T03:57:30;6.04;86.38
72126;SHT31;59999;51.676;22.650;2024-03-02T03:59:56;6.01;86.54
72126;SHT31;59999;51.676;22.650;2024-03-02T04:02:22;5.98;86.70
72126;SHT31;59999;51.676;22.650;2024-03-02T04:04:48;5.98;86.80
72126;SHT31;59999;51.676;22.650;2024-03-02T04:07:13;5.99;86.81
72126;SHT31;59999;51.676;22.650;2024-03-02T04:09:39;5.99;86.86
72126;SHT31;59999;51.676;22.650;2024-03-02T04:12:05;5.98;86.91
72126;SHT31;59999;51.676;22.650;2024-03-02T04:14:31;5.99;86.97
72126;SHT31;59999;51.676;22.650;2024-03-02T04:16:57;6.01;86.99
72126;SHT31;59999;51.676;22.650;2024-03-02T04:19:23;5.98;87.01
72126;SHT31;59999;51.676;22.650;2024-03-02T04:21:49;5.97;86.96
72126;SHT31;59999;51.676;22.650;2024-03-02T04:24:15;5.98;87.00
72126;SHT31;59999;51.676;22.650;2024-03-02T04:26:41;5.97;87.00
72126;SHT31;59999;51.676;22.650;2024-03-02T04:29:07;6.02;87.02
72126;SHT31;59999;51.676;22.650;2024-03-02T04:31:33;6.01;86.92
72126;SHT31;59999;51.676;22.650;2024-03-02T04:33:59;6.05;86.79
72126;SHT31;59999;51.676;22.650;2024-03-02T04:36:25;6.02;86.70
72126;SHT31;59999;51.676;22.650;2024-03-02T04:38:50;6.05;86.76
72126;SHT31;59999;51.676;22.650;2024-03-02T04:41:17;6.05;86.60
72126;SHT31;59999;51.676;22.650;2024-03-02T04:43:42;6.04;86.75
72126;SHT31;59999;51.676;22.650;2024-03-02T04:46:08;6.02;86.82
72126;SHT31;59999;51.676;22.650;2024-03-02T04:48:34;6.04;86.63
72126;SHT31;59999;51.676;22.650;2024-03-02T04:51:00;5.99;86.81
72126;SHT31;59999;51.676;22.650;2024-03-02T04:53:26;6.01;86.74
72126;SHT31;59999;51.676;22.650;2024-03-02T04:55:52;5.98;86.80
72126;SHT31;59999;51.676;22.650;2024-03-02T04:58:43;5.98;86.93
72126;SHT31;59999;51.676;22.650;2024-03-02T05:01:09;6.01;86.87
72126;SHT31;59999;51.676;22.650;2024-03-02T05:03:36;5.97;86.86
72126;SHT31;59999;51.676;22.650;2024-03-02T05:06:02;5.91;86.96
72126;SHT31;59999;51.676;22.650;2024-03-02T05:08:28;5.95;87.17
72126;SHT31;59999;51.676;22.650;2024-03-02T05:10:53;6.02;86.90
72126;SHT31;59999;51.676;22.650;2024-03-02T05:13:19;6.01;86.77
72126;SHT31;59999;51.676;22.650;2024-03-02T05:15:46;6.02;86.55
72126;SHT31;59999;51.676;22.650;2024-03-02T05:18:12;6.07;86.71
72126;SHT31;59999;51.676;22.650;2024-03-02T05:20:38;6.05;86.65
72126;SHT31;59999;51.676;22.650;2024-03-02T05:23:03;6.08;86.66
72126;SHT31;59999;51.676;22.650;2024-03-02T05:25:29;6.09;86.28
72126;SHT31;59999;51.676;22.650;2024-03-02T05:27:55;6.07;86.47
72126;SHT31;59999;51.676;22.650;2024-03-02T05:30:21;6.07;86.38
72126;SHT31;59999;51.676;22.650;2024-03-02T05:32:47;6.05;86.52
72126;SHT31;59999;51.676;22.650;2024-03-02T05:35:13;6.05;86.41
72126;SHT31;59999;51.676;22.650;2024-03-02T05:37:38;6.04;86.56
72126;SHT31;59999;51.676;22.650;2024-03-02T05:40:05;6.02;86.68
72126;SHT31;59999;51.676;22.650;2024-03-02T05:42:31;6.05;86.78
72126;SHT31;59999;51.676;22.650;2024-03-02T05:44:57;6.04;86.68
72126;SHT31;59999;51.676;22.650;2024-03-02T05:47:23;6.04;86.77
72126;SHT31;59999;51.676;22.650;2024-03-02T05:49:48;6.11;86.66
72126;SHT31;59999;51.676;22.650;2024-03-02T05:52:14;6.08;86.59
72126;SHT31;59999;51.676;22.650;2024-03-02T05:54:40;6.09;86.67
72126;SHT31;59999;51.676;22.650;2024-03-02T05:57:06;6.08;86.59
72126;SHT31;59999;51.676;22.650;2024-03-02T05:59:50;6.12;86.31
72126;SHT31;59999;51.676;22.650;2024-03-02T06:02:16;6.14;86.24
72126;SHT31;59999;51.676;22.650;2024-03-02T06:04:42;6.17;86.38
72126;SHT31;59999;51.676;22.650;2024-03-02T06:07:07;6.14;86.25
72126;SHT31;59999;51.676;22.650;2024-03-02T06:09:33;6.17;86.24
72126;SHT31;59999;51.676;22.650;2024-03-02T06:11:59;6.17;86.17
72126;SHT31;59999;51.676;22.650;2024-03-02T06:14:25;6.22;85.79
72126;SHT31;59999;51.676;22.650;2024-03-02T06:16:50;6.24;85.89
72126;SHT31;59999;51.676;22.650;2024-03-02T06:19:16;6.21;86.01
72126;SHT31;59999;51.676;22.650;2024-03-02T06:21:43;6.26;86.14
72126;SHT31;59999;51.676;22.650;2024-03-02T06:24:09;6.26;85.89
72126;SHT31;59999;51.676;22.650;2024-03-02T06:26:34;6.26;85.82
72126;SHT31;59999;51.676;22.650;2024-03-02T06:29:00;6.28;85.87
72126;SHT31;59999;51.676;22.650;2024-03-02T06:31:28;6.28;85.70
72126;SHT31;59999;51.676;22.650;2024-03-02T06:33:53;6.30;85.81
72126;SHT31;59999;51.676;22.650;2024-03-02T06:36:19;6.30;85.71
72126;SHT31;59999;51.676;22.650;2024-03-02T06:38:45;6.30;85.59
72126;SHT31;59999;51.676;22.650;2024-03-02T06:41:11;6.35;85.21
72126;SHT31;59999;51.676;22.650;2024-03-02T06:43:37;6.35;85.31
72126;SHT31;59999;51.676;22.650;2024-03-02T06:46:03;6.38;85.05
72126;SHT31;59999;51.676;22.650;2024-03-02T06:48:30;6.38;84.97
72126;SHT31;59999;51.676;22.650;2024-03-02T06:50:56;6.38;85.15
72126;SHT31;59999;51.676;22.650;2024-03-02T06:53:23;6.39;84.96
72126;SHT31;59999;51.676;22.650;2024-03-02T06:55:49;6.39;84.56
72126;SHT31;59999;51.676;22.650;2024-03-02T06:58:15;6.45;84.80
72126;SHT31;59999;51.676;22.650;2024-03-02T07:00:42;6.45;84.77
72126;SHT31;59999;51.676;22.650;2024-03-02T07:03:08;6.46;84.78
72126;SHT31;59999;51.676;22.650;2024-03-02T07:05:35;6.50;84.44
72126;SHT31;59999;51.676;22.650;2024-03-02T07:08:00;6.53;84.22
72126;SHT31;59999;51.676;22.650;2024-03-02T07:10:27;6.50;84.19
72126;SHT31;59999;51.676;22.650;2024-03-02T07:12:53;6.52;84.08
72126;SHT31;59999;51.676;22.650;2024-03-02T07:15:19;6.53;84.01
72126;SHT31;59999;51.676;22.650;2024-03-02T07:17:51;6.54;83.84
72126;SHT31;59999;51.676;22.650;2024-03-02T07:20:17;6.56;84.09
72126;SHT31;59999;51.676;22.650;2024-03-02T07:22:43;6.60;83.85
72126;SHT31;59999;51.676;22.650;2024-03-02T07:25:09;6.65;83.62
72126;SHT31;59999;51.676;22.650;2024-03-02T07:27:35;6.67;83.52
72126;SHT31;59999;51.676;22.650;2024-03-02T07:30:02;6.69;83.41
72126;SHT31;59999;51.676;22.650;2024-03-02T07:32:29;6.77;83.25
72126;SHT31;59999;51.676;22.650;2024-03-02T07:34:54;6.75;82.60
72126;SHT31;59999;51.676;22.650;2024-03-02T07:37:22;6.76;82.36
72126;SHT31;59999;51.676;22.650;2024-03-02T07:39:48;6.79;82.54
72126;SHT31;59999;51.676;22.650;2024-03-02T07:42:14;6.80;82.33
72126;SHT31;59999;51.676;22.650;2024-03-02T07:44:40;6.80;82.76
72126;SHT31;59999;51.676;22.650;2024-03-02T07:47:06;6.86;82.34
72126;SHT31;59999;51.676;22.650;2024-03-02T07:49:32;6.88;82.38
72126;SHT31;59999;51.676;22.650;2024-03-02T07:51:58;6.88;82.54
72126;SHT31;59999;51.676;22.650;2024-03-02T07:54:24;6.90;82.02
72126;SHT31;59999;51.676;22.650;2024-03-02T07:56:50;6.96;81.84
72126;SHT31;59999;51.676;22.650;2024-03-02T07:59:15;6.96;82.14
72126;SHT31;59999;51.676;22.650;2024-03-02T08:01:41;6.98;81.85
72126;SHT31;59999;51.676;22.650;2024-03-02T08:04:07;7.01;81.65
72126;SHT31;59999;51.676;22.650;2024-03-02T08:06:33;7.01;81.82
72126;SHT31;59999;51.676;22.650;2024-03-02T08:09:00;7.08;81.81
72126;SHT31;59999;51.676;22.650;2024-03-02T08:11:27;7.11;81.21
72126;SHT31;59999;51.676;22.650;2024-03-02T08:13:52;7.12;80.96
72126;SHT31;59999;51.676;22.650;2024-03-02T08:16:21;7.15;81.02
72126;SHT31;59999;51.676;22.650;2024-03-02T08:18:48;7.17;80.87
72126;SHT31;59999;51.676;22.650;2024-03-02T08:21:14;7.18;81.28
72126;SHT31;59999;51.676;22.650;2024-03-02T08:23:40;7.18;80.85
72126;SHT31;59999;51.676;22.650;2024-03-02T08:26:08;7.21;80.69
72126;SHT31;59999;51.676;22.650;2024-03-02T08:28:35;7.24;80.72
72126;SHT31;59999;51.676;22.650;2024-03-02T08:31:03;7.28;80.91
72126;SHT31;59999;51.676;22.650;2024-03-02T08:33:29;7.31;80.28
72126;SHT31;59999;51.676;22.650;2024-03-02T08:35:56;7.32;80.15
72126;SHT31;59999;51.676;22.650;2024-03-02T08:38:22;7.34;80.33
72126;SHT31;59999;51.676;22.650;2024-03-02T08:40:49;7.31;80.78
72126;SHT31;59999;51.676;22.650;2024-03-02T08:43:15;7.36;80.69
72126;SHT31;59999;51.676;22.650;2024-03-02T08:45:41;7.41;80.96
72126;SHT31;59999;51.676;22.650;2024-03-02T08:48:07;7.48;80.48
72126;SHT31;59999;51.676;22.650;2024-03-02T08:50:36;7.55;80.16
72126;SHT31;59999;51.676;22.650;2024-03-02T08:53:05;7.55;79.64
72126;SHT31;59999;51.676;22.650;2024-03-02T08:55:31;7.56;80.16
72126;SHT31;59999;51.676;22.650;2024-03-02T08:57:57;7.58;80.09
72126;SHT31;59999;51.676;22.650;2024-03-02T09:00:23;7.58;80.03
72126;SHT31;59999;51.676;22.650;2024-03-02T09:02:50;7.55;80.28
72126;SHT31;59999;51.676;22.650;2024-03-02T09:05:15;7.61;80.09
72126;SHT31;59999;51.676;22.650;2024-03-02T09:07:41;7.55;79.88
72126;SHT31;59999;51.676;22.650;2024-03-02T09:10:08;7.61;79.52
72126;SHT31;59999;51.676;22.650;2024-03-02T09:12:35;7.62;80.18
72126;SHT31;59999;51.676;22.650;2024-03-02T09:15:01;7.63;80.18
72126;SHT31;59999;51.676;22.650;2024-03-02T09:17:27;7.70;80.43
72126;SHT31;59999;51.676;22.650;2024-03-02T09:19:53;7.75;79.66
72126;SHT31;59999;51.676;22.650;2024-03-02T09:22:19;7.80;79.58
72126;SHT31;59999;51.676;22.650;2024-03-02T09:24:45;7.84;78.88
72126;SHT31;59999;51.676;22.650;2024-03-02T09:27:11;7.87;79.13
72126;SHT31;59999;51.676;22.650;2024-03-02T09:29:37;7.89;78.14
72126;SHT31;59999;51.676;22.650;2024-03-02T09:32:04;7.91;78.83
72126;SHT31;59999;51.676;22.650;2024-03-02T09:34:31;7.91;79.02
72126;SHT31;59999;51.676;22.650;2024-03-02T09:36:57;7.93;78.93
72126;SHT31;59999;51.676;22.650;2024-03-02T09:39:24;7.93;79.03
72126;SHT31;59999;51.676;22.650;2024-03-02T09:41:53;8.00;78.64
72126;SHT31;59999;51.676;22.650;2024-03-02T09:44:19;8.01;78.65
72126;SHT31;59999;51.676;22.650;2024-03-02T09:46:49;8.05;78.44
72126;SHT31;59999;51.676;22.650;2024-03-02T09:49:14;8.10;78.25
72126;SHT31;59999;51.676;22.650;2024-03-02T09:51:40;8.18;77.76
72126;SHT31;59999;51.676;22.650;2024-03-02T09:54:07;8.20;77.60
72126;SHT31;59999;51.676;22.650;2024-03-02T09:56:33;8.23;77.88
72126;SHT31;59999;51.676;22.650;2024-03-02T09:58:59;8.28;77.66
72126;SHT31;59999;51.676;22.650;2024-03-02T10:01:25;8.40;77.38
72126;SHT31;59999;51.676;22.650;2024-03-02T10:03:51;8.49;77.94
72126;SHT31;59999;51.676;22.650;2024-03-02T10:06:26;8.61;78.03
72126;SHT31;59999;51.676;22.650;2024-03-02T10:08:53;8.71;76.66
72126;SHT31;59999;51.676;22.650;2024-03-02T10:11:31;8.79;76.06
72126;SHT31;59999;51.676;22.650;2024-03-02T10:14:13;8.86;75.97
72126;SHT31;59999;51.676;22.650;2024-03-02T10:16:43;8.93;75.54
72126;SHT31;59999;51.676;22.650;2024-03-02T10:19:19;8.96;75.73
72126;SHT31;59999;51.676;22.650;2024-03-02T10:21:49;9.02;75.89
72126;SHT31;59999;51.676;22.650;2024-03-02T10:24:19;9.09;75.45
72126;SHT31;59999;51.676;22.650;2024-03-02T10:26:45;9.11;75.51
72126;SHT31;59999;51.676;22.650;2024-03-02T10:29:12;9.13;74.79
72126;SHT31;59999;51.676;22.650;2024-03-02T10:31:39;9.16;74.54
72126;SHT31;59999;51.676;22.650;2024-03-02T10:34:06;9.14;74.85
72126;SHT31;59999;51.676;22.650;2024-03-02T10:36:35;9.19;75.27
72126;SHT31;59999;51.676;22.650;2024-03-02T10:39:03;9.20;74.97
72126;SHT31;59999;51.676;22.650;2024-03-02T10:41:32;9.24;74.49
72126;SHT31;59999;51.676;22.650;2024-03-02T10:43:59;9.26;75.00
72126;SHT31;59999;51.676;22.650;2024-03-02T10:46:29;9.27;73.97
72126;SHT31;59999;51.676;22.650;2024-03-02T10:49:00;9.30;74.63
72126;SHT31;59999;51.676;22.650;2024-03-02T10:51:29;9.31;74.61
72126;SHT31;59999;51.676;22.650;2024-03-02T10:54:00;9.35;74.82
72126;SHT31;59999;51.676;22.650;2024-03-02T10:56:44;9.34;74.01
72126;SHT31;59999;51.676;22.650;2024-03-02T10:59:27;9.38;73.44
72126;SHT31;59999;51.676;22.650;2024-03-02T11:01:58;9.32;74.36
72126;SHT31;59999;51.676;22.650;2024-03-02T11:04:26;9.31;74.35
72126;SHT31;59999;51.676;22.650;2024-03-02T11:06:56;9.31;74.57
72126;SHT31;59999;51.676;22.650;2024-03-02T11:09:26;9.35;74.42
72126;SHT31;59999;51.676;22.650;2024-03-02T11:13:12;9.32;74.69
72126;SHT31;59999;51.676;22.650;2024-03-02T11:15:10;9.37;74.57
72126;SHT31;59999;51.676;22.650;2024-03-02T11:17:38;9.45;74.17
72126;SHT31;59999;51.676;22.650;2024-03-02T11:20:07;9.45;74.14
72126;SHT31;59999;51.676;22.650;2024-03-02T11:22:36;9.44;74.06
72126;SHT31;59999;51.676;22.650;2024-03-02T11:25:02;9.45;74.31
72126;SHT31;59999;51.676;22.650;2024-03-02T11:32:57;9.57;74.10
72126;SHT31;59999;51.676;22.650;2024-03-02T11:35:27;9.58;74.58
72126;SHT31;59999;51.676;22.650;2024-03-02T11:37:56;9.63;74.55
72126;SHT31;59999;51.676;22.650;2024-03-02T11:40:25;9.65;74.35
72126;SHT31;59999;51.676;22.650;2024-03-02T11:42:50;9.68;73.95
72126;SHT31;59999;51.676;22.650;2024-03-02T11:45:17;9.72;74.60
72126;SHT31;59999;51.676;22.650;2024-03-02T11:47:50;9.74;74.55
72126;SHT31;59999;51.676;22.650;2024-03-02T11:50:46;9.74;74.04
72126;SHT31;59999;51.676;22.650;2024-03-02T11:53:12;9.71;74.38
72126;SHT31;59999;51.676;22.650;2024-03-02T11:55:39;9.69;73.86
72126;SHT31;59999;51.676;22.650;2024-03-02T11:58:09;9.65;73.69
72126;SHT31;59999;51.676;22.650;2024-03-02T12:00:35;9.59;74.03
72126;SHT31;59999;51.676;22.650;2024-03-02T12:03:05;9.58;74.79
72126;SHT31;59999;51.676;22.650;2024-03-02T12:05:32;9.55;74.18
72126;SHT31;59999;51.676;22.650;2024-03-02T12:08:07;9.55;74.55
72126;SHT31;59999;51.676;22.650;2024-03-02T12:10:34;9.51;75.10
72126;SHT31;59999;51.676;22.650;2024-03-02T12:13:04;9.52;75.00
72126;SHT31;59999;51.676;22.650;2024-03-02T12:15:33;9.54;75.14
72126;SHT31;59999;51.676;22.650;2024-03-02T12:18:00;9.57;74.92
72126;SHT31;59999;51.676;22.650;2024-03-02T12:20:28;9.63;75.29
72126;SHT31;59999;51.676;22.650;2024-03-02T12:22:56;9.59;75.22
72126;SHT31;59999;51.676;22.650;2024-03-02T12:25:24;9.54;75.28
72126;SHT31;59999;51.676;22.650;2024-03-02T12:27:54;9.55;75.85
72126;SHT31;59999;51.676;22.650;2024-03-02T12:30:21;9.62;75.27
72126;SHT31;59999;51.676;22.650;2024-03-02T12:32:48;9.63;74.67
72126;SHT31;59999;51.676;22.650;2024-03-02T12:35:14;9.65;75.03
72126;SHT31;59999;51.676;22.650;2024-03-02T12:37:50;9.62;75.21
72126;SHT31;59999;51.676;22.650;2024-03-02T12:40:17;9.68;74.60
72126;SHT31;59999;51.676;22.650;2024-03-02T12:42:45;9.69;74.49
72126;SHT31;59999;51.676;22.650;2024-03-02T12:45:12;9.72;74.96
72126;SHT31;59999;51.676;22.650;2024-03-02T12:47:39;9.75;74.34
72126;SHT31;59999;51.676;22.650;2024-03-02T12:50:06;9.75;74.23
72126;SHT31;59999;51.676;22.650;2024-03-02T12:52:33;9.75;74.55
72126;SHT31;59999;51.676;22.650;2024-03-02T12:55:04;9.77;74.48
72126;SHT31;59999;51.676;22.650;2024-03-02T12:57:32;9.81;75.01
72126;SHT31;59999;51.676;22.650;2024-03-02T13:00:04;9.86;74.75
72126;SHT31;59999;51.676;22.650;2024-03-02T13:02:36;9.86;74.55
72126;SHT31;59999;51.676;22.650;2024-03-02T13:05:06;9.92;74.82
72126;SHT31;59999;51.676;22.650;2024-03-02T13:07:37;9.92;74.92
72126;SHT31;59999;51.676;22.650;2024-03-02T13:10:03;9.99;74.71
72126;SHT31;59999;51.676;22.650;2024-03-02T13:12:30;9.99;74.78
72126;SHT31;59999;51.676;22.650;2024-03-02T13:14:58;10.00;75.28
72126;SHT31;59999;51.676;22.650;2024-03-02T13:17:24;10.05;75.04
72126;SHT31;59999;51.676;22.650;2024-03-02T13:19:55;10.02;75.28
72126;SHT31;59999;51.676;22.650;2024-03-02T13:22:21;10.02;74.55
72126;SHT31;59999;51.676;22.650;2024-03-02T13:24:49;10.00;73.92
72126;SHT31;59999;51.676;22.650;2024-03-02T13:27:14;10.03;74.14
72126;SHT31;59999;51.676;22.650;2024-03-02T13:29:45;10.03;73.91
72126;SHT31;59999;51.676;22.650;2024-03-02T13:32:12;10.03;74.04
72126;SHT31;59999;51.676;22.650;2024-03-02T13:34:37;10.05;74.02
72126;SHT31;59999;51.676;22.650;2024-03-02T13:37:03;10.03;74.43
72126;SHT31;59999;51.676;22.650;2024-03-02T13:39:31;10.09;74.45
72126;SHT31;59999;51.676;22.650;2024-03-02T13:41:58;10.12;74.54
72126;SHT31;59999;51.676;22.650;2024-03-02T13:44:31;10.19;74.45
72126;SHT31;59999;51.676;22.650;2024-03-02T13:46:59;10.13;73.88
72126;SHT31;59999;51.676;22.650;2024-03-02T13:49:25;10.14;73.57
72126;SHT31;59999;51.676;22.650;2024-03-02T13:51:54;10.13;73.61
72126;SHT31;59999;51.676;22.650;2024-03-02T13:54:20;10.12;73.49
72126;SHT31;59999;51.676;22.650;2024-03-02T13:56:46;10.10;73.53
72126;SHT31;59999;51.676;22.650;2024-03-02T13:59:12;10.09;73.69
72126;SHT31;59999;51.676;22.650;2024-03-02T14:01:38;10.09;73.37
72126;SHT31;59999;51.676;22.650;2024-03-02T14:04:04;10.12;73.25
72126;SHT31;59999;51.676;22.650;2024-03-02T14:06:30;10.10;73.35
72126;SHT31;59999;51.676;22.650;2024-03-02T14:08:56;10.13;73.15
72126;SHT31;59999;51.676;22.650;2024-03-02T14:11:22;10.06;73.33
72126;SHT31;59999;51.676;22.650;2024-03-02T14:13:48;10.08;74.00
72126;SHT31;59999;51.676;22.650;2024-03-02T14:16:19;10.06;74.48
72126;SHT31;59999;51.676;22.650;2024-03-02T14:18:45;10.03;75.01
72126;SHT31;59999;51.676;22.650;2024-03-02T14:21:11;10.03;75.09
72126;SHT31;59999;51.676;22.650;2024-03-02T14:23:37;9.99;74.89
72126;SHT31;59999;51.676;22.650;2024-03-02T14:26:03;9.98;75.29
72126;SHT31;59999;51.676;22.650;2024-03-02T14:28:29;9.98;75.50
72126;SHT31;59999;51.676;22.650;2024-03-02T14:30:55;9.90;75.65
72126;SHT31;59999;51.676;22.650;2024-03-02T14:33:21;9.90;75.87
72126;SHT31;59999;51.676;22.650;2024-03-02T14:35:47;9.85;76.17
72126;SHT31;59999;51.676;22.650;2024-03-02T14:38:13;9.85;76.36
72126;SHT31;59999;51.676;22.650;2024-03-02T14:40:38;9.81;76.43
72126;SHT31;59999;51.676;22.650;2024-03-02T14:43:04;9.79;76.59
72126;SHT31;59999;51.676;22.650;2024-03-02T14:45:30;9.77;76.45
72126;SHT31;59999;51.676;22.650;2024-03-02T14:47:56;9.71;76.46
72126;SHT31;59999;51.676;22.650;2024-03-02T14:50:26;9.67;76.73
72126;SHT31;59999;51.676;22.650;2024-03-02T14:52:52;9.59;76.86
72126;SHT31;59999;51.676;22.650;2024-03-02T14:55:18;9.58;76.43
72126;SHT31;59999;51.676;22.650;2024-03-02T14:57:44;9.58;76.36
72126;SHT31;59999;51.676;22.650;2024-03-02T15:00:10;9.51;76.29
72126;SHT31;59999;51.676;22.650;2024-03-02T15:02:37;9.45;76.39
72126;SHT31;59999;51.676;22.650;2024-03-02T15:05:04;9.41;76.52
72126;SHT31;59999;51.676;22.650;2024-03-02T15:07:31;9.32;76.47
72126;SHT31;59999;51.676;22.650;2024-03-02T15:09:57;9.34;76.66
72126;SHT31;59999;51.676;22.650;2024-03-02T15:12:23;9.27;76.79
72126;SHT31;59999;51.676;22.650;2024-03-02T15:14:49;9.23;76.91
72126;SHT31;59999;51.676;22.650;2024-03-02T15:17:15;9.13;77.22
72126;SHT31;59999;51.676;22.650;2024-03-02T15:19:45;9.09;77.47
72126;SHT31;59999;51.676;22.650;2024-03-02T15:22:11;9.03;77.62
72126;SHT31;59999;51.676;22.650;2024-03-02T15:24:38;9.00;77.67
72126;SHT31;59999;51.676;22.650;2024-03-02T15:27:05;8.93;77.92
72126;SHT31;59999;51.676;22.650;2024-03-02T15:29:31;8.87;78.28
72126;SHT31;59999;51.676;22.650;2024-03-02T15:31:57;8.79;78.57
72126;SHT31;59999;51.676;22.650;2024-03-02T15:34:24;8.80;78.52
72126;SHT31;59999;51.676;22.650;2024-03-02T15:36:50;8.82;78.40